Ancona/Falconara, Italy

12:05 PM CET on January 18, 2017 (GMT +0100)
Montemarciano - Marina | | Change Station
Active Advisory: >>

Elev 0 ft 43.65 °N, 13.33 °E | Updated 3 minutes ago

Mostly Cloudy
Mostly Cloudy
45.3 °F
Feels Like 42 °F
N
6.0
Wind Variable Wind from NE
Gusts 6.0 mph

Today
High -- | Low -- °F
--% Chance of Precip.
Yesterday
High -- | Low -- °F
Precip. -- in
Pressure 30.15 in
Visibility 2.8 miles
Clouds Scattered Clouds 3000 ft
Scattered Clouds 6000 ft
Windchill 42 °F
Dew Point 36 °F
Humidity 69%
Rainfall 0.38 in
Snow Depth Not available.
7:35 AM 4:59 PM
Waning Gibbous, 64% visible
METAR LIPR 181045Z 02018G29KT 4500 BR SCT030 SCT060 06/M00 Q1021
Pressure 30.15 in
Visibility 2.8 miles
Clouds Scattered Clouds 3000 ft
Scattered Clouds 6000 ft
Windchill 42 °F
Dew Point 36 °F
Humidity 69%
Rainfall 0.38 in
Snow Depth Not available.
7:35 AM 4:59 PM
Waning Gibbous, 64% visible
METAR LIPR 181045Z 02018G29KT 4500 BR SCT030 SCT060 06/M00 Q1021

Get Your Daily Forecast Email!

Thanks for signing up!

Be on the lookout for a verification email in your inbox.

You'll start receiving the daily forecast at 8 AM.

×

10-Day Weather Forecast

×

Almanac

Astronomy

Jan. 18, 2017 Rise Set
Actual Time
Civil Twilight
Nautical Twilight
Astronomical Twilight
Moon
Length of Visible Light
Length of Day
Tomorrow will be .
, % of the Moon is Illuminated

Today's Extremes

Country Highs Country Lows

Community

WunderPhotos

Upload Photos

1,962,540 photos uploaded!

WunderBlog® & News

Nearby

Air Quality

  Air Quality AQ Index Pollutant
Not available.

Snow Depth

Station Depth Elevation

Earthquake Activity

City Distance Mag. Time & Date
Minimum magnitude displayed is 2.5.

Coastal Water Temperatures

Place Temperature

Stations

Nearby Weather Stations

Station Location Temp. Windchill Dew Point Humidity Wind Precip. Elev Updated Type